This is the latest recevied weather packets stored in our database for station/object KC4GS-13. If no packets are shown the sender has not sent any weather packets the latest 10 day(s).
| Time | Temp. | Humidity | Pressure | Rain* | Wind** | Luminosity | Snow |
|---|---|---|---|---|---|---|---|
| 1787851991 | 30° C | 75% | 1016.1 hPa | 0 mm | - | 168 W/m² | - |
| 1787851690 | 31.11° C | 72% | 1016.2 hPa | 0 mm | - | 222 W/m² | - |
| 1787851384 | 31.11° C | 73% | 1016.3 hPa | 0 mm | - | 361 W/m² | - |
| 1787851079 | 30.56° C | 73% | 1016.1 hPa | 0 mm | - | 306 W/m² | - |
| 1787850775 | 31.11° C | 71% | 1016.5 hPa | 0 mm | - | 242 W/m² | - |
| 1787850471 | 31.67° C | 69% | 1016.6 hPa | 0 mm | - | 279 W/m² | - |
| 1787850166 | 31.67° C | 72% | 1016.6 hPa | 0 mm | - | 398 W/m² | - |
| 1787849860 | 31.11° C | 71% | 1016.8 hPa | 0 mm | - | 354 W/m² | - |
| 1787849555 | 31.11° C | 73% | 1016.8 hPa | 0 mm | - | 770 W/m² | - |
| 1787849253 | 30.56° C | 75% | 1017 hPa | 0 mm | - | 324 W/m² | - |
| 1787848948 | 30.56° C | 75% | 1017 hPa | 0 mm | - | 309 W/m² | - |
| 1787848642 | 30° C | 79% | 1017.2 hPa | 0 mm | - | 321 W/m² | - |
| 1787848337 | 30° C | 78% | 1017.4 hPa | 0 mm | - | 191 W/m² | - |
| 1787848031 | 29.44° C | 78% | 1017.3 hPa | 0 mm | - | 306 W/m² | - |
| 1787847726 | 29.44° C | 79% | 1017.5 hPa | 0 mm | - | 205 W/m² | - |
| 1787847421 | 29.44° C | 79% | 1017.5 hPa | 0 mm | - | 265 W/m² | - |
| 1787847116 | 28.89° C | 80% | 1017.6 hPa | 0 mm | - | 252 W/m² | - |
| 1787846813 | 29.44° C | 81% | 1017.9 hPa | 0 mm | - | 261 W/m² | - |
| 1787846507 | 29.44° C | 80% | 1017.5 hPa | 0 mm | - | 192 W/m² | - |
| 1787846203 | 29.44° C | 80% | 1017.8 hPa | 0 mm | - | 247 W/m² | - |
| 1787845898 | 28.89° C | 81% | 1017.9 hPa | 0 mm | - | 435 W/m² | - |
| 1787845593 | 28.89° C | 81% | 1017.7 hPa | 0 mm | - | 271 W/m² | - |
| 1787845287 | 28.89° C | 82% | 1018.1 hPa | 0 mm | - | 252 W/m² | - |
| 1787844984 | 28.33° C | 82% | 1018 hPa | 0 mm | - | 279 W/m² | - |
| 1787844678 | 27.78° C | 84% | 1018 hPa | 0 mm | - | 305 W/m² | - |
* Rain latest hour (hover to see other rain measurements)
** Current wind speed in m/s (hover to see current wind gust speed)